Time;durP1;ratioP1;P1;durP2;ratioP2;P2;SDS_P1;SDS_P2;PMS_P1;PMS_P2;Temp;Humidity;BMP_temperature;BMP_pressure;BME280_temperature;BME280_humidity;BME280_pressure;Samples;Min_cycle;Max_cycle;Signal;HPM_P1;HPM_P2
2022/02/20 00:03:00;;;;;;;0.45;0.43;;;;;;;2.77;100.00;100091.53;6150660;28;20053;-79
2022/02/20 00:06:02;;;;;;;0.30;0.30;;;;;;;2.86;100.00;100095.56;6206245;28;20049;-79
2022/02/20 00:09:04;;;;;;;0.30;0.30;;;;;;;2.85;100.00;100098.19;6247838;28;20046;-78
2022/02/20 00:12:07;;;;;;;0.40;0.40;;;;;;;2.87;100.00;100101.59;6247904;28;20050;-79
2022/02/20 00:15:09;;;;;;;0.55;0.55;;;;;;;2.87;100.00;100092.06;6205194;28;20044;-79
2022/02/20 00:18:10;;;;;;;0.60;0.60;;;;;;;2.85;100.00;100090.41;6240805;28;20413;-79
2022/02/20 00:21:12;;;;;;;1.73;1.17;;;;;;;2.86;100.00;100097.28;6246885;28;20072;-79
2022/02/20 00:24:13;;;;;;;0.77;0.45;;;;;;;2.88;100.00;100100.69;6247445;28;20517;-79
2022/02/20 00:27:16;;;;;;;0.50;0.50;;;;;;;2.89;100.00;100099.78;6247197;28;20056;-79
2022/02/20 00:30:17;;;;;;;0.52;0.38;;;;;;;2.94;100.00;100109.13;6247489;28;20057;-80
2022/02/20 00:33:19;;;;;;;0.50;0.50;;;;;;;2.97;100.00;100115.97;6247492;28;20050;-78
2022/02/20 00:36:20;;;;;;;0.90;0.70;;;;;;;2.94;100.00;100116.91;6248159;28;20049;-79
2022/02/20 00:39:21;;;;;;;2.90;1.30;;;;;;;2.94;100.00;100116.06;6248535;28;20053;-80
2022/02/20 00:42:24;;;;;;;0.90;0.85;;;;;;;2.91;100.00;100116.19;6246500;28;20515;-80
2022/02/20 00:45:26;;;;;;;0.88;0.77;;;;;;;2.95;100.00;100128.13;6247834;28;20049;-78
2022/02/20 00:48:27;;;;;;;1.15;0.82;;;;;;;2.96;100.00;100116.88;6247685;28;20045;-78
2022/02/20 00:51:29;;;;;;;1.25;0.80;;;;;;;2.97;100.00;100124.59;6247402;28;20060;-79
2022/02/20 00:54:30;;;;;;;1.20;0.90;;;;;;;2.99;100.00;100127.13;6247199;28;20058;-79
2022/02/20 00:57:33;;;;;;;0.82;0.50;;;;;;;2.99;100.00;100115.00;6247457;28;20053;-79
2022/02/20 01:00:34;;;;;;;1.67;0.90;;;;;;;3.03;100.00;100123.56;6247239;28;20424;-80
2022/02/20 01:03:35;;;;;;;1.17;0.82;;;;;;;3.05;100.00;100138.19;6251314;28;20050;-79
2022/02/20 01:06:37;;;;;;;1.02;0.85;;;;;;;3.02;100.00;100129.66;6251052;28;20409;-79
2022/02/20 01:09:39;;;;;;;1.30;0.80;;;;;;;3.05;100.00;100138.19;6250967;28;20552;-79
2022/02/20 01:12:41;;;;;;;0.98;0.93;;;;;;;3.07;100.00;100138.13;6250553;28;20052;-79
2022/02/20 01:15:43;;;;;;;1.08;0.98;;;;;;;3.12;100.00;100138.81;6250781;28;20512;-79
2022/02/20 01:18:44;;;;;;;1.90;0.93;;;;;;;3.16;100.00;100145.63;6251169;28;20045;-79
2022/02/20 01:21:45;;;;;;;1.70;1.30;;;;;;;3.15;100.00;100150.88;6250703;28;20053;-79
2022/02/20 01:24:47;;;;;;;2.00;1.20;;;;;;;3.27;100.00;100153.03;6251172;28;20068;-80
2022/02/20 01:27:49;;;;;;;1.35;1.23;;;;;;;3.28;100.00;100157.38;6250876;28;20050;-79
2022/02/20 01:30:51;;;;;;;3.38;1.23;;;;;;;3.35;100.00;100163.19;6250329;28;20445;-79
2022/02/20 01:33:52;;;;;;;2.15;1.80;;;;;;;3.41;100.00;100169.03;6250518;28;20416;-79
2022/02/20 01:36:55;;;;;;;2.45;1.38;;;;;;;3.45;100.00;100160.25;6250349;28;20049;-79
2022/02/20 01:39:56;;;;;;;2.55;1.75;;;;;;;3.48;100.00;100161.88;6194305;28;20055;-79
2022/02/20 01:42:59;;;;;;;2.60;1.60;;;;;;;3.53;100.00;100173.81;6125840;29;20507;-80
2022/02/20 01:46:01;;;;;;;1.38;1.27;;;;;;;3.51;100.00;100173.03;6195492;28;20516;-79
2022/02/20 01:49:03;;;;;;;2.83;1.85;;;;;;;3.54;100.00;100185.91;6138693;28;20052;-79
2022/02/20 01:52:05;;;;;;;3.03;1.35;;;;;;;3.58;100.00;100188.41;6125260;29;20051;-79
2022/02/20 01:55:09;;;;;;;1.85;1.70;;;;;;;3.62;100.00;100188.25;6167462;28;20066;-77
2022/02/20 01:58:12;;;;;;;1.60;1.50;;;;;;;3.63;100.00;100199.47;6167119;28;20048;-79
2022/02/20 02:01:13;;;;;;;2.13;1.33;;;;;;;3.68;100.00;100198.44;6125159;29;20465;-79
2022/02/20 02:04:15;;;;;;;3.47;1.63;;;;;;;3.66;100.00;100212.38;6125965;29;20059;-79
2022/02/20 02:07:16;;;;;;;2.13;1.80;;;;;;;3.69;100.00;100218.31;6125494;29;20059;-79
2022/02/20 02:10:17;;;;;;;2.97;1.70;;;;;;;3.74;100.00;100223.38;6125376;29;20062;-80
2022/02/20 02:13:20;;;;;;;3.92;2.08;;;;;;;3.81;100.00;100238.72;6126106;29;20063;-79
2022/02/20 02:16:22;;;;;;;2.40;1.88;;;;;;;3.79;100.00;100232.69;6125591;29;20404;-78
2022/02/20 02:19:24;;;;;;;4.63;2.38;;;;;;;3.81;100.00;100243.91;6127380;29;20090;-79
2022/02/20 02:22:28;;;;;;;2.75;1.88;;;;;;;3.88;100.00;100241.94;6125603;29;20043;-79
2022/02/20 02:25:32;;;;;;;6.28;2.03;;;;;;;3.87;100.00;100252.41;6125778;29;20058;-79
2022/02/20 02:28:34;;;;;;;2.53;1.95;;;;;;;3.91;100.00;100260.03;6125960;29;20054;-79
2022/02/20 02:31:35;;;;;;;3.00;2.33;;;;;;;3.89;100.00;100259.22;6124680;29;20055;-79
2022/02/20 02:34:39;;;;;;;3.25;2.30;;;;;;;3.94;100.00;100274.66;6125275;29;20055;-76
2022/02/20 02:37:42;;;;;;;5.53;2.20;;;;;;;3.93;100.00;100276.41;6125139;29;20455;-80
2022/02/20 02:40:43;;;;;;;6.57;3.30;;;;;;;3.93;100.00;100285.97;6124315;29;20062;-79
2022/02/20 02:43:45;;;;;;;3.63;2.28;;;;;;;4.03;100.00;100296.00;6125403;29;20059;-80
2022/02/20 02:46:46;;;;;;;3.00;1.92;;;;;;;3.99;100.00;100301.34;6125051;29;20047;-80
2022/02/20 02:49:48;;;;;;;2.95;1.90;;;;;;;4.01;100.00;100305.63;6125060;29;20068;-81
2022/02/20 02:52:50;;;;;;;8.18;2.35;;;;;;;3.99;100.00;100310.00;6125293;29;20055;-78
2022/02/20 02:55:52;;;;;;;6.07;2.17;;;;;;;3.97;100.00;100319.63;6126929;29;20407;-77
2022/02/20 02:58:54;;;;;;;3.35;2.58;;;;;;;3.93;100.00;100325.81;6107961;28;20575;-78
2022/02/20 03:01:58;;;;;;;2.88;2.00;;;;;;;3.94;100.00;100324.06;6102448;29;20052;-78
2022/02/20 03:05:03;;;;;;;4.15;2.70;;;;;;;3.94;100.00;100342.25;6101891;29;20049;-78
2022/02/20 03:08:06;;;;;;;2.88;2.15;;;;;;;3.97;100.00;100339.56;6102706;29;20059;-78
2022/02/20 03:11:08;;;;;;;4.68;2.30;;;;;;;3.94;100.00;100352.66;6101649;29;20052;-79
2022/02/20 03:14:09;;;;;;;2.22;1.60;;;;;;;3.99;100.00;100363.75;6102595;29;20075;-79
2022/02/20 03:17:11;;;;;;;5.13;2.70;;;;;;;4.03;100.00;100357.56;6102566;29;20049;-79
2022/02/20 03:20:12;;;;;;;3.28;2.33;;;;;;;4.11;100.00;100378.13;6102037;29;20070;-78
2022/02/20 03:23:15;;;;;;;4.40;2.88;;;;;;;4.10;100.00;100384.22;6101375;29;20059;-78
2022/02/20 03:26:16;;;;;;;2.40;1.80;;;;;;;4.14;100.00;100391.03;6101434;29;20051;-77
2022/02/20 03:29:17;;;;;;;2.28;1.73;;;;;;;4.11;100.00;100404.97;6104871;29;20055;-78
2022/02/20 03:32:19;;;;;;;2.58;2.05;;;;;;;3.94;100.00;100417.63;6182530;28;20058;-77
2022/02/20 03:35:20;;;;;;;3.33;1.98;;;;;;;3.89;100.00;100419.53;6171603;28;20151;-79
2022/02/20 03:38:23;;;;;;;2.70;2.30;;;;;;;3.87;100.00;100427.38;6169961;28;20059;-79
2022/02/20 03:41:24;;;;;;;3.63;2.35;;;;;;;3.82;100.00;100442.28;6158422;28;20047;-79
2022/02/20 03:44:25;;;;;;;4.35;2.30;;;;;;;3.78;100.00;100449.31;6204582;28;20057;-79
2022/02/20 03:47:27;;;;;;;2.20;1.40;;;;;;;3.82;100.00;100470.88;6170095;28;20058;-79
2022/02/20 03:50:28;;;;;;;5.25;2.33;;;;;;;3.79;100.00;100479.59;6248081;28;20049;-79
2022/02/20 03:53:31;;;;;;;2.67;1.75;;;;;;;3.72;100.00;100479.81;6204616;28;20051;-79
2022/02/20 03:56:32;;;;;;;2.38;1.33;;;;;;;3.76;100.00;100486.63;6124528;28;20044;-80
2022/02/20 03:59:33;;;;;;;1.70;1.27;;;;;;;3.63;100.00;100495.69;6123737;28;20518;-78
2022/02/20 04:02:35;;;;;;;3.47;2.17;;;;;;;3.69;100.00;100506.75;6122526;28;20059;-79
2022/02/20 04:05:36;;;;;;;2.47;1.55;;;;;;;3.59;100.00;100507.03;6123125;28;20186;-80
2022/02/20 04:08:39;;;;;;;2.53;1.67;;;;;;;3.54;100.00;100509.78;6123071;29;20499;-79
2022/02/20 04:11:40;;;;;;;3.35;1.30;;;;;;;3.50;100.00;100518.56;6122429;28;20056;-80
2022/02/20 04:14:41;;;;;;;2.75;1.63;;;;;;;3.49;100.00;100522.91;6123337;29;20047;-79
2022/02/20 04:17:45;;;;;;;2.45;1.50;;;;;;;3.50;100.00;100534.16;6123170;29;20047;-80
2022/02/20 04:20:47;;;;;;;2.10;1.67;;;;;;;3.43;100.00;100545.59;6122308;28;20063;-79
2022/02/20 04:23:50;;;;;;;1.45;1.15;;;;;;;3.35;100.00;100547.53;6123221;29;20151;-79
2022/02/20 04:26:51;;;;;;;3.88;1.92;;;;;;;3.38;100.00;100560.47;6123480;29;20048;-78
2022/02/20 04:29:53;;;;;;;3.13;1.50;;;;;;;3.36;100.00;100565.72;6124432;29;20062;-79
2022/02/20 04:32:54;;;;;;;2.92;1.48;;;;;;;3.29;100.00;100567.59;6125132;28;20060;-78
2022/02/20 04:35:56;;;;;;;2.42;1.58;;;;;;;3.23;100.00;100554.78;6126961;29;20504;-80
2022/02/20 04:38:58;;;;;;;3.83;1.52;;;;;;;3.20;100.00;100549.66;6129183;29;20059;-79
2022/02/20 04:42:00;;;;;;;2.72;1.52;;;;;;;3.18;100.00;100548.88;6128326;29;20051;-79
2022/02/20 04:45:01;;;;;;;4.82;2.58;;;;;;;3.19;100.00;100553.16;6128808;29;20052;-78
2022/02/20 04:48:03;;;;;;;6.28;2.25;;;;;;;3.16;100.00;100562.75;6128223;28;20043;-78
2022/02/20 04:51:04;;;;;;;3.42;1.98;;;;;;;3.17;100.00;100580.03;6126953;29;20055;-79
2022/02/20 04:54:07;;;;;;;4.03;2.00;;;;;;;3.15;100.00;100577.50;6127719;29;20052;-79
2022/02/20 04:57:08;;;;;;;4.15;1.98;;;;;;;3.12;100.00;100567.19;6128106;28;20495;-79
2022/02/20 05:00:11;;;;;;;3.53;2.00;;;;;;;3.19;100.00;100562.69;6128520;29;20063;-80
2022/02/20 05:03:13;;;;;;;4.00;1.60;;;;;;;3.12;100.00;100558.53;6130875;29;20071;-80
2022/02/20 05:06:14;;;;;;;2.83;2.10;;;;;;;3.03;100.00;100572.59;6127839;28;20055;-80
2022/02/20 05:09:17;;;;;;;3.63;1.88;;;;;;;3.08;100.00;100591.50;6128205;29;20079;-80
2022/02/20 05:12:18;;;;;;;2.97;1.80;;;;;;;3.14;100.00;100590.53;6127236;29;20418;-80
2022/02/20 05:15:20;;;;;;;5.10;2.45;;;;;;;3.08;100.00;100570.75;6128091;29;20052;-79
2022/02/20 05:18:21;;;;;;;3.58;1.95;;;;;;;3.09;100.00;100569.88;6127972;29;20044;-80
2022/02/20 05:21:22;;;;;;;3.92;2.40;;;;;;;3.00;100.00;100572.69;6127125;29;20052;-79
2022/02/20 05:24:25;;;;;;;3.22;2.03;;;;;;;3.01;100.00;100571.81;6128805;28;20070;-79
2022/02/20 05:27:28;;;;;;;3.10;2.00;;;;;;;2.99;100.00;100574.41;6127915;28;20522;-79
2022/02/20 05:30:29;;;;;;;3.40;2.05;;;;;;;3.01;100.00;100570.06;6127451;29;20427;-80
2022/02/20 05:33:31;;;;;;;5.03;2.35;;;;;;;3.01;100.00;100569.22;6128176;29;20058;-79
2022/02/20 05:36:32;;;;;;;2.63;1.60;;;;;;;3.05;100.00;100563.91;6128097;28;20070;-80
2022/02/20 05:39:35;;;;;;;3.15;2.00;;;;;;;3.07;100.00;100581.19;6137299;28;20061;-79
2022/02/20 05:42:36;;;;;;;1.75;1.45;;;;;;;3.05;100.00;100592.47;6199490;28;20064;-80
2022/02/20 05:45:38;;;;;;;3.13;1.67;;;;;;;3.11;100.00;100594.03;6195448;28;20053;-82
2022/02/20 05:48:39;;;;;;;5.82;2.67;;;;;;;3.04;100.00;100595.94;6209945;28;20506;-81
2022/02/20 05:51:41;;;;;;;4.78;2.45;;;;;;;2.93;100.00;100592.75;6216336;28;20046;-79
2022/02/20 05:54:43;;;;;;;3.47;2.20;;;;;;;3.01;100.00;100587.38;6226607;28;20054;-80
2022/02/20 05:57:46;;;;;;;3.75;1.95;;;;;;;2.95;100.00;100590.09;6227431;28;20535;-80
2022/02/20 06:00:47;;;;;;;3.33;1.90;;;;;;;3.00;100.00;100590.88;6198504;28;20049;-81
2022/02/20 06:03:49;;;;;;;3.28;2.05;;;;;;;2.92;100.00;100591.06;6175017;28;20051;-80
2022/02/20 06:06:50;;;;;;;3.58;2.20;;;;;;;2.83;100.00;100582.63;6170812;28;20052;-81
2022/02/20 06:09:53;;;;;;;1.42;1.25;;;;;;;2.83;100.00;100580.03;6150149;28;20386;-81
2022/02/20 06:12:54;;;;;;;4.22;1.67;;;;;;;2.77;100.00;100578.44;6211149;28;20053;-80
2022/02/20 06:15:55;;;;;;;2.50;1.80;;;;;;;2.88;100.00;100575.59;6251916;28;20049;-81
2022/02/20 06:18:59;;;;;;;3.75;2.45;;;;;;;2.94;100.00;100567.66;6251821;28;20046;-80
2022/02/20 06:22:00;;;;;;;3.78;2.35;;;;;;;2.93;100.00;100573.72;6249846;28;20051;-81
2022/02/20 06:25:04;;;;;;;6.32;3.10;;;;;;;2.85;100.00;100570.47;6234549;28;20063;-80
2022/02/20 06:28:05;;;;;;;3.33;2.10;;;;;;;2.85;100.00;100567.88;6115560;29;20055;-79
2022/02/20 06:31:07;;;;;;;3.00;1.75;;;;;;;2.86;100.00;100554.88;6114980;29;20048;-80
2022/02/20 06:34:08;;;;;;;3.13;1.70;;;;;;;2.79;100.00;100563.69;6123755;28;20054;-80
2022/02/20 06:37:09;;;;;;;3.92;2.60;;;;;;;2.80;100.00;100558.44;6137094;28;20047;-80
2022/02/20 06:40:12;;;;;;;2.40;1.58;;;;;;;2.89;100.00;100561.72;6103470;28;20703;-80
2022/02/20 06:43:14;;;;;;;3.08;2.08;;;;;;;2.85;100.00;100554.91;6123706;29;20419;-79
2022/02/20 06:46:15;;;;;;;6.25;3.00;;;;;;;2.79;100.00;100561.09;6118040;29;20056;-79
2022/02/20 06:49:17;;;;;;;4.05;2.28;;;;;;;2.78;100.00;100555.06;6112272;29;20052;-79
2022/02/20 06:52:18;;;;;;;3.58;2.20;;;;;;;2.79;100.00;100550.72;6114707;29;20681;-80
2022/02/20 06:55:21;;;;;;;4.45;2.20;;;;;;;2.76;100.00;100545.59;6111925;28;20052;-79
2022/02/20 06:58:22;;;;;;;4.88;2.15;;;;;;;2.78;100.00;100539.50;6127077;29;20054;-80
2022/02/20 07:01:24;;;;;;;2.90;2.03;;;;;;;2.78;100.00;100541.22;6113680;28;20056;-81
2022/02/20 07:04:25;;;;;;;5.38;2.60;;;;;;;2.77;100.00;100545.56;6104211;28;20106;-80
2022/02/20 07:07:27;;;;;;;4.00;2.08;;;;;;;2.78;100.00;100530.84;6104484;28;20135;-79
2022/02/20 07:10:29;;;;;;;3.13;2.00;;;;;;;2.81;100.00;100528.16;6103514;28;20055;-81
2022/02/20 07:13:31;;;;;;;4.32;2.58;;;;;;;2.86;100.00;100525.44;6103631;28;20052;-79
2022/02/20 07:16:33;;;;;;;3.35;2.15;;;;;;;2.87;100.00;100529.78;6103657;28;20057;-80
2022/02/20 07:19:34;;;;;;;2.90;1.63;;;;;;;2.86;100.00;100525.44;6103716;28;20678;-80
2022/02/20 07:22:36;;;;;;;6.45;2.88;;;;;;;2.83;100.00;100526.41;6103263;28;20060;-80
2022/02/20 07:25:39;;;;;;;4.53;2.47;;;;;;;2.84;100.00;100522.06;6104399;28;20055;-81
2022/02/20 07:28:40;;;;;;;2.92;2.00;;;;;;;2.90;100.00;100506.31;6103647;28;20056;-80
2022/02/20 07:31:41;;;;;;;6.05;2.63;;;;;;;2.90;100.00;100501.97;6101652;28;20048;-80
2022/02/20 07:34:43;;;;;;;4.20;2.53;;;;;;;2.97;100.00;100493.16;6103665;28;20067;-81
2022/02/20 07:37:44;;;;;;;3.10;1.50;;;;;;;2.99;100.00;100477.53;6103835;28;20415;-80
2022/02/20 07:40:47;;;;;;;5.88;2.78;;;;;;;3.04;100.00;100468.75;6145286;28;20060;-79
2022/02/20 07:43:50;;;;;;;3.58;1.85;;;;;;;3.11;100.00;100463.38;6187483;28;20058;-79
2022/02/20 07:46:53;;;;;;;5.00;2.25;;;;;;;3.15;100.00;100458.06;6174594;28;20039;-80
2022/02/20 07:49:54;;;;;;;5.18;2.15;;;;;;;3.30;100.00;100454.19;6125161;29;20048;-80
2022/02/20 07:52:56;;;;;;;3.35;1.60;;;;;;;3.31;100.00;100448.09;6126685;29;20062;-80
2022/02/20 07:55:59;;;;;;;3.50;2.15;;;;;;;3.24;100.00;100442.22;6122907;29;20052;-80
2022/02/20 07:59:00;;;;;;;2.55;1.50;;;;;;;3.26;100.00;100434.38;6139498;28;20051;-79
2022/02/20 08:02:01;;;;;;;3.47;1.88;;;;;;;3.19;100.00;100438.91;6110796;28;20055;-78
2022/02/20 08:05:04;;;;;;;1.65;1.48;;;;;;;3.19;100.00;100432.88;6102691;28;20566;-78
2022/02/20 08:08:06;;;;;;;2.05;1.35;;;;;;;3.19;100.00;100425.09;6147842;28;20076;-79
2022/02/20 08:11:09;;;;;;;1.73;1.40;;;;;;;3.15;100.00;100420.88;6188312;28;20055;-78
2022/02/20 08:14:11;;;;;;;1.40;0.95;;;;;;;3.02;100.00;100409.97;6149392;28;20091;-78
2022/02/20 08:17:12;;;;;;;2.80;1.20;;;;;;;3.04;100.00;100393.47;6208152;28;20041;-78
2022/02/20 08:20:15;;;;;;;1.52;1.30;;;;;;;3.04;100.00;100385.69;6211675;28;20055;-78
2022/02/20 08:23:17;;;;;;;1.63;1.13;;;;;;;3.12;100.00;100371.63;6202537;28;20501;-77
2022/02/20 08:26:21;;;;;;;1.55;0.70;;;;;;;3.08;100.00;100368.25;6131673;28;20137;-78
2022/02/20 08:29:23;;;;;;;2.03;1.15;;;;;;;3.07;100.00;100361.38;6130122;28;20130;-77
2022/02/20 08:32:24;;;;;;;1.27;1.00;;;;;;;3.09;100.00;100350.94;6215874;28;20057;-78
2022/02/20 08:35:26;;;;;;;3.33;1.38;;;;;;;3.09;100.00;100331.03;6170278;28;20535;-78
2022/02/20 08:38:27;;;;;;;2.47;1.42;;;;;;;3.05;100.00;100324.25;6178855;28;20055;-77
2022/02/20 08:41:30;;;;;;;1.60;1.48;;;;;;;3.08;100.00;100311.13;6255524;28;20053;-78
2022/02/20 08:44:34;;;;;;;2.55;1.75;;;;;;;3.10;100.00;100300.75;6135552;28;20400;-78
2022/02/20 08:47:35;;;;;;;4.05;2.15;;;;;;;3.15;100.00;100278.94;6132674;28;20426;-79
2022/02/20 08:50:38;;;;;;;5.13;1.77;;;;;;;3.15;100.00;100273.72;6128684;29;20436;-79
2022/02/20 08:53:39;;;;;;;3.50;2.50;;;;;;;3.20;100.00;100265.81;6135260;28;20055;-78
2022/02/20 08:56:42;;;;;;;3.88;2.03;;;;;;;3.17;100.00;100250.31;6152239;28;20065;-79
2022/02/20 08:59:43;;;;;;;2.30;1.83;;;;;;;3.24;100.00;100228.47;6221679;28;20055;-77
2022/02/20 09:02:45;;;;;;;3.17;2.15;;;;;;;3.24;100.00;100216.31;6207641;28;20041;-80
2022/02/20 09:05:47;;;;;;;4.90;2.50;;;;;;;3.30;100.00;100207.47;6162243;28;20056;-79
2022/02/20 09:08:49;;;;;;;3.78;2.20;;;;;;;3.27;100.00;100198.06;6134697;29;20040;-79
2022/02/20 09:11:51;;;;;;;3.90;1.85;;;;;;;3.27;100.00;100194.59;6116032;28;20056;-78
2022/02/20 09:14:53;;;;;;;3.83;2.42;;;;;;;3.29;100.00;100185.03;6125880;28;20055;-80
2022/02/20 09:17:54;;;;;;;10.90;2.60;;;;;;;3.32;100.00;100182.34;6139333;29;20052;-79
2022/02/20 09:20:55;;;;;;;4.40;1.98;;;;;;;3.31;100.00;100185.81;6137265;28;20055;-78
2022/02/20 09:23:57;;;;;;;3.55;2.40;;;;;;;3.35;100.00;100181.38;6212041;28;20048;-79
2022/02/20 09:27:00;;;;;;;4.97;2.53;;;;;;;3.37;100.00;100180.44;6129164;29;20044;-79
2022/02/20 09:30:01;;;;;;;3.58;2.10;;;;;;;3.42;100.00;100157.75;6118879;29;20047;-79
2022/02/20 09:33:02;;;;;;;7.20;1.77;;;;;;;3.40;100.00;100154.34;6138168;28;20055;-79
2022/02/20 09:36:04;;;;;;;2.30;1.42;;;;;;;3.42;100.00;100152.56;6170102;28;20052;-79
2022/02/20 09:39:06;;;;;;;5.25;2.22;;;;;;;3.48;100.00;100167.06;6188286;28;20487;-78
2022/02/20 09:42:09;;;;;;;6.15;3.28;;;;;;;3.53;100.00;100163.41;6140963;29;20047;-78
2022/02/20 09:45:10;;;;;;;5.35;2.20;;;;;;;3.60;100.00;100153.69;6150785;28;20499;-79
2022/02/20 09:48:13;;;;;;;3.92;1.95;;;;;;;3.71;100.00;100137.72;6159131;28;20058;-79
2022/02/20 09:51:14;;;;;;;2.60;1.65;;;;;;;3.79;100.00;100127.91;6217951;28;20053;-80
2022/02/20 09:54:15;;;;;;;5.40;1.98;;;;;;;3.83;100.00;100120.84;6264321;28;20105;-79
2022/02/20 09:57:18;;;;;;;3.47;2.05;;;;;;;3.94;100.00;100113.50;6264115;28;20049;-80
2022/02/20 10:00:20;;;;;;;3.58;1.30;;;;;;;3.99;100.00;100098.59;6169236;28;20048;-80
2022/02/20 10:03:30;;;;;;;3.53;1.95;;;;;;;4.10;100.00;100109.44;6140513;29;20055;-81
2022/02/20 10:06:31;;;;;;;4.00;1.88;;;;;;;4.13;100.00;100111.06;6180575;28;20055;-81
2022/02/20 10:09:37;;;;;;;8.43;4.35;;;;;;;4.21;100.00;100106.44;6140492;29;20047;-80
2022/02/20 10:12:40;;;;;;;4.95;1.67;;;;;;;4.30;100.00;100108.69;6140584;28;20138;-81
2022/02/20 10:15:42;;;;;;;2.58;1.55;;;;;;;4.40;100.00;100103.97;6137419;29;20056;-82
2022/02/20 10:18:45;;;;;;;2.67;1.52;;;;;;;4.53;100.00;100100.84;6131115;28;20067;-81
2022/02/20 10:21:47;;;;;;;2.47;1.55;;;;;;;4.66;100.00;100098.63;6198847;28;20047;-81
2022/02/20 10:25:00;;;;;;;1.90;1.50;;;;;;;4.75;100.00;100087.84;6118042;29;20463;-81
2022/02/20 10:28:07;;;;;;;2.67;1.40;;;;;;;4.82;100.00;100076.28;6154765;28;20188;-82
2022/02/20 10:31:09;;;;;;;2.15;1.40;;;;;;;4.93;100.00;100061.97;6199627;28;20045;-82
2022/02/20 10:34:13;;;;;;;1.50;1.20;;;;;;;5.00;100.00;100064.28;6141378;28;20062;-81
2022/02/20 10:37:14;;;;;;;1.30;1.20;;;;;;;5.04;100.00;100059.78;6154022;28;20051;-83
2022/02/20 10:40:30;;;;;;;2.50;1.40;;;;;;;5.11;100.00;100052.56;6142611;28;20043;-82
2022/02/20 10:43:37;;;;;;;4.38;1.38;;;;;;;5.19;100.00;100038.31;6133632;28;20063;-84
2022/02/20 10:46:39;;;;;;;2.25;1.52;;;;;;;5.26;100.00;100031.91;6148976;29;20077;-84
2022/02/20 10:49:41;;;;;;;2.70;1.75;;;;;;;5.32;100.00;100030.81;6157148;28;20416;-83
2022/02/20 10:52:42;;;;;;;1.13;0.98;;;;;;;5.35;100.00;100017.63;6153745;28;20517;-83
2022/02/20 10:55:45;;;;;;;3.90;1.40;;;;;;;5.40;100.00;100018.28;6156959;28;20135;-83
2022/02/20 10:58:51;;;;;;;3.03;1.45;;;;;;;5.51;100.00;100012.63;6131324;29;20052;-83
2022/02/20 11:01:52;;;;;;;3.40;2.00;;;;;;;5.59;100.00;100018.34;6110575;29;20071;-82
2022/02/20 11:04:54;;;;;;;5.72;1.70;;;;;;;5.73;100.00;100010.75;6106444;28;20432;-83
2022/02/20 11:07:56;;;;;;;2.88;1.30;;;;;;;5.77;100.00;100004.47;6112706;28;20052;-82
2022/02/20 11:11:36;;;;;;;4.70;1.65;;;;;;;5.83;100.00;99998.13;6161370;28;20063;-83
2022/02/20 11:14:22;;;;;;;4.38;1.65;;;;;;;5.96;100.00;99995.84;6178617;28;20048;-84
2022/02/20 11:17:23;;;;;;;3.55;1.63;;;;;;;6.05;100.00;100001.47;6101574;29;20060;-83
2022/02/20 11:20:27;;;;;;;5.55;1.95;;;;;;;6.14;100.00;99988.94;6101198;29;20056;-83
2022/02/20 11:23:29;;;;;;;2.88;1.55;;;;;;;6.20;100.00;99988.63;6101114;29;20060;-81
2022/02/20 11:26:34;;;;;;;1.98;1.45;;;;;;;6.27;100.00;99975.22;6100426;29;20060;-82
2022/02/20 11:29:37;;;;;;;5.47;1.80;;;;;;;6.30;100.00;99977.66;6100207;29;20393;-83
2022/02/20 11:32:41;;;;;;;2.53;1.58;;;;;;;6.39;100.00;99978.16;6100540;29;20071;-81
2022/02/20 11:35:44;;;;;;;1.88;1.20;;;;;;;6.43;100.00;99964.88;6113843;28;20051;-81
2022/02/20 11:39:06;;;;;;;1.75;1.20;;;;;;;6.52;100.00;99951.38;6113275;29;20151;-82
2022/02/20 11:42:12;;;;;;;2.10;1.45;;;;;;;6.53;100.00;99945.22;6104819;28;20048;-81
2022/02/20 11:45:14;;;;;;;1.83;1.02;;;;;;;6.67;100.00;99939.31;6102894;29;20044;-81
2022/02/20 11:48:16;;;;;;;1.52;1.15;;;;;;;6.73;100.00;99948.63;6107267;29;20044;-81
2022/02/20 11:51:18;;;;;;;1.70;1.33;;;;;;;6.75;100.00;99931.94;6103027;29;20063;-82
2022/02/20 11:54:22;;;;;;;1.73;1.55;;;;;;;6.80;100.00;99931.72;6111143;28;20052;-81
2022/02/20 11:57:28;;;;;;;2.05;1.30;;;;;;;6.90;100.00;99932.94;6107921;28;20052;-81
2022/02/20 12:00:30;;;;;;;2.80;1.67;;;;;;;6.96;100.00;99934.41;6108991;29;20416;-80
2022/02/20 12:03:33;;;;;;;2.42;2.00;;;;;;;6.99;100.00;99937.69;6110550;28;20123;-80
2022/02/20 12:06:36;;;;;;;3.90;1.90;;;;;;;7.06;100.00;99925.16;6101219;28;20048;-80
2022/02/20 12:09:38;;;;;;;2.53;1.52;;;;;;;7.05;100.00;99918.25;6098835;29;20048;-81
2022/02/20 12:12:40;;;;;;;3.47;2.05;;;;;;;7.09;100.00;99917.16;6099856;29;20139;-80
2022/02/20 12:15:43;;;;;;;2.30;1.23;;;;;;;7.19;100.00;99913.16;6100069;29;20075;-80
2022/02/20 12:19:08;;;;;;;3.60;1.70;;;;;;;7.23;100.00;99919.06;6099734;29;20055;-80
2022/02/20 12:22:12;;;;;;;3.58;1.48;;;;;;;7.26;100.00;99903.19;6099439;29;20495;-80
2022/02/20 12:25:18;;;;;;;2.55;1.20;;;;;;;7.37;100.00;99913.94;6099535;29;20056;-81
2022/02/20 12:28:31;;;;;;;2.03;1.35;;;;;;;7.40;100.00;99905.06;6099600;29;20207;-80
2022/02/20 12:32:15;;;;;;;3.25;1.73;;;;;;;7.47;100.00;99903.84;6099573;29;20052;-80
2022/02/20 12:35:21;;;;;;;3.90;2.15;;;;;;;7.53;100.00;99893.88;6099635;29;20059;-80
2022/02/20 12:38:30;;;;;;;3.05;1.98;;;;;;;7.52;100.00;99894.81;6144055;28;20137;-80
2022/02/20 12:41:39;;;;;;;9.27;2.10;;;;;;;7.53;100.00;99887.81;6134952;28;20052;-80
2022/02/20 12:44:41;;;;;;;8.55;2.13;;;;;;;7.53;100.00;99886.03;6161437;28;21335;-82
2022/02/20 12:47:44;;;;;;;4.15;1.77;;;;;;;7.57;100.00;99886.72;6246913;28;20049;-82
2022/02/20 12:50:49;;;;;;;3.90;2.05;;;;;;;7.60;100.00;99881.31;6200905;28;20049;-81
2022/02/20 12:53:50;;;;;;;10.07;2.08;;;;;;;7.61;100.00;99883.00;6154451;28;20048;-81
2022/02/20 12:57:00;;;;;;;4.28;1.75;;;;;;;7.66;100.00;99867.91;6200443;28;20062;-81
2022/02/20 13:00:01;;;;;;;2.17;1.25;;;;;;;7.68;100.00;99862.59;6125499;28;20555;-78
2022/02/20 13:03:03;;;;;;;2.75;1.40;;;;;;;7.73;100.00;99874.50;6150019;28;20052;-79
2022/02/20 13:06:06;;;;;;;6.90;1.55;;;;;;;7.75;100.00;99867.38;6203711;28;20057;-78
2022/02/20 13:09:07;;;;;;;5.10;1.73;;;;;;;7.67;100.00;99850.44;6138995;28;20635;-78
2022/02/20 13:12:20;;;;;;;1.60;1.20;;;;;;;7.66;100.00;99846.13;6138749;28;20047;-79
2022/02/20 13:15:21;;;;;;;1.98;1.27;;;;;;;7.59;100.00;99843.03;6109821;29;20551;-78
2022/02/20 13:18:24;;;;;;;3.47;1.80;;;;;;;7.61;100.00;99855.09;6100265;29;20513;-78
2022/02/20 13:21:29;;;;;;;1.98;1.30;;;;;;;7.62;100.00;99848.91;6158484;28;20047;-78
2022/02/20 13:24:30;;;;;;;1.48;1.25;;;;;;;7.64;100.00;99838.38;6209781;28;20053;-77
2022/02/20 13:27:44;;;;;;;3.58;1.80;;;;;;;7.62;100.00;99832.38;6250298;28;20099;-78
2022/02/20 13:30:47;;;;;;;2.88;1.83;;;;;;;7.60;100.00;99823.81;6249792;28;20408;-78
2022/02/20 13:33:50;;;;;;;1.92;1.17;;;;;;;7.63;100.00;99815.78;6165643;28;20065;-78
2022/02/20 13:36:54;;;;;;;2.42;1.33;;;;;;;7.68;100.00;99807.69;6138223;28;20521;-78
2022/02/20 13:39:57;;;;;;;4.68;1.38;;;;;;;7.69;100.00;99811.97;6146374;29;20047;-78
2022/02/20 13:43:00;;;;;;;1.60;1.35;;;;;;;7.72;100.00;99790.88;6167670;28;20125;-78
2022/02/20 13:46:02;;;;;;;2.63;1.25;;;;;;;7.76;100.00;99790.59;6188759;28;20055;-78
2022/02/20 13:49:04;;;;;;;2.03;1.55;;;;;;;7.73;100.00;99777.72;6160961;28;20409;-78
2022/02/20 13:52:07;;;;;;;3.78;2.28;;;;;;;7.80;100.00;99770.34;6193783;28;20504;-79
2022/02/20 13:55:19;;;;;;;2.22;1.45;;;;;;;7.80;100.00;99771.19;6132241;28;20052;-79
2022/02/20 13:58:24;;;;;;;4.13;1.02;;;;;;;7.82;100.00;99765.91;6208260;28;20054;-79
2022/02/20 14:01:25;;;;;;;3.13;1.45;;;;;;;7.83;100.00;99763.19;6126267;28;20392;-78
2022/02/20 14:04:29;;;;;;;1.40;1.08;;;;;;;7.82;100.00;99753.66;6190276;28;20051;-78
2022/02/20 14:07:32;;;;;;;4.07;1.35;;;;;;;7.82;100.00;99734.50;6156668;28;20048;-79
2022/02/20 14:10:34;;;;;;;4.28;1.42;;;;;;;7.83;100.00;99739.66;6176260;28;20043;-79
2022/02/20 14:13:37;;;;;;;6.68;1.30;;;;;;;7.85;100.00;99735.16;6250324;28;20496;-78